PWSweather.com
Personal Weather Stations
Station Observations
KCOBLACK1
Chalet Park, Black Hawk, CO 80422

Chalet ParkBlack Hawk, CO 80422

Lat: 39.8294, Lon: -105.48

Elevation: 9370

Station Type: Vantage Pro2

http://www.oscaranddeb.com/weather

Latest ConditionsUpdated 5:05:00 AM MST Sunday, Jan 20, 2019
Currently Today's Max Today's Min Today's Average
Temperature 32.5°F0.3°C 32.5°F0.3°C 28.3°F-2.1°C 29.9°F-1.2°C
Dew Point 19.8°F-6.8°C 19.8°F-6.8°C 17.8°F-7.9°C 19.1°F-7.2°C
Winds 7.0 mph NW11.3 kmh NW 11.0 mph -17.7 kmh - - 4.7 mph 7.6 kmh
Wind Gusts 26.0 mph41.8 kmh 26.0 mph41.8 kmh - -
Humidity 59% 68% 59% 64%
Pressure 30.15 in1021.0 mb 30.32 in1026.8 mb 30.15 in1021.0 mb -
Hour Temp Dew Point Humidity Winds Wind Gusts Pressure Precip Precip Rate Daily Precip Total
05:05 AM 32.5°F0.3°C 19.8°F-6.8°C 59% 7.0 mph NW11.3 kmh NW 26.0 mph41.8 kmh 30.15 in1021.0 mb 0.00 in0.0 mm 0.00 in0.0 mm 0.00 in0.0 mm
05:00 AM 29.9°F-1.2°C 18.5°F-7.5°C 62% 5.0 mph SSW8.0 kmh SSW 26.0 mph41.8 kmh 30.16 in1021.3 mb 0.00 in0.0 mm 0.00 in0.0 mm 0.00 in0.0 mm
04:55 AM 29.6°F-1.3°C 18.2°F-7.7°C 62% 4.0 mph ENE6.4 kmh ENE 9.0 mph14.5 kmh 30.16 in1021.3 mb 0.00 in0.0 mm 0.00 in0.0 mm 0.00 in0.0 mm
04:50 AM 29.8°F-1.2°C 18.4°F-7.6°C 62% 4.0 mph S6.4 kmh S 10.0 mph16.1 kmh 30.15 in1021.0 mb 0.00 in0.0 mm 0.00 in0.0 mm 0.00 in0.0 mm
04:45 AM 30.3°F-0.9°C 18.1°F-7.7°C 60% 7.0 mph S11.3 kmh S 12.0 mph19.3 kmh 30.16 in1021.3 mb 0.00 in0.0 mm 0.00 in0.0 mm 0.00 in0.0 mm
04:40 AM 30.5°F-0.8°C 18.3°F-7.6°C 60% 6.0 mph S9.7 kmh S 13.0 mph20.9 kmh 30.16 in1021.3 mb 0.00 in0.0 mm 0.00 in0.0 mm 0.00 in0.0 mm
04:35 AM 30.3°F-0.9°C 18.1°F-7.7°C 60% 5.0 mph SSW8.0 kmh SSW 12.0 mph19.3 kmh 30.17 in1021.7 mb 0.00 in0.0 mm 0.00 in0.0 mm 0.00 in0.0 mm
04:30 AM 29.7°F-1.3°C 17.9°F-7.8°C 61% 11.0 mph S17.7 kmh S 18.0 mph29.0 kmh 30.17 in1021.7 mb 0.00 in0.0 mm 0.00 in0.0 mm 0.00 in0.0 mm
04:25 AM 28.8°F-1.8°C 17.8°F-7.9°C 63% 8.0 mph S12.9 kmh S 12.0 mph19.3 kmh 30.19 in1022.4 mb 0.00 in0.0 mm 0.00 in0.0 mm 0.00 in0.0 mm
04:20 AM 28.6°F-1.9°C 18.0°F-7.8°C 64% 8.0 mph S12.9 kmh S 16.0 mph25.7 kmh 30.18 in1022.0 mb 0.00 in0.0 mm 0.00 in0.0 mm 0.00 in0.0 mm
04:15 AM 28.6°F-1.9°C 18.4°F-7.6°C 65% 3.0 mph WSW4.8 kmh WSW 7.0 mph11.3 kmh 30.20 in1022.7 mb 0.00 in0.0 mm 0.00 in0.0 mm 0.00 in0.0 mm
04:10 AM 28.5°F-1.9°C 18.3°F-7.6°C 65% 5.0 mph SE8.0 kmh SE 8.0 mph12.9 kmh 30.18 in1022.0 mb 0.00 in0.0 mm 0.00 in0.0 mm 0.00 in0.0 mm
04:05 AM 28.5°F-1.9°C 18.3°F-7.6°C 65% 6.0 mph SSE9.7 kmh SSE 12.0 mph19.3 kmh 30.18 in1022.0 mb 0.00 in0.0 mm 0.00 in0.0 mm 0.00 in0.0 mm
04:00 AM 28.5°F-1.9°C 18.6°F-7.4°C 66% 4.0 mph SSW6.4 kmh SSW 8.0 mph12.9 kmh 30.20 in1022.7 mb 0.00 in0.0 mm 0.00 in0.0 mm 0.00 in0.0 mm
03:55 AM 28.4°F-2.0°C 18.9°F-7.3°C 67% 6.0 mph SSW9.7 kmh SSW 10.0 mph16.1 kmh 30.19 in1022.4 mb 0.00 in0.0 mm 0.00 in0.0 mm 0.00 in0.0 mm
03:50 AM 28.3°F-2.1°C 18.8°F-7.3°C 67% 4.0 mph SSW6.4 kmh SSW 7.0 mph11.3 kmh 30.20 in1022.7 mb 0.00 in0.0 mm 0.00 in0.0 mm 0.00 in0.0 mm
03:45 AM 28.4°F-2.0°C 18.5°F-7.5°C 66% 5.0 mph SW8.0 kmh SW 10.0 mph16.1 kmh 30.20 in1022.7 mb 0.00 in0.0 mm 0.00 in0.0 mm 0.00 in0.0 mm
03:40 AM 28.4°F-2.0°C 18.9°F-7.3°C 67% 3.0 mph S4.8 kmh S 13.0 mph20.9 kmh 30.21 in1023.0 mb 0.00 in0.0 mm 0.00 in0.0 mm 0.00 in0.0 mm
03:35 AM 28.4°F-2.0°C 18.5°F-7.5°C 66% 6.0 mph S9.7 kmh S 11.0 mph17.7 kmh 30.20 in1022.7 mb 0.00 in0.0 mm 0.00 in0.0 mm 0.00 in0.0 mm
03:30 AM 28.4°F-2.0°C 18.9°F-7.3°C 67% 4.0 mph SSW6.4 kmh SSW 11.0 mph17.7 kmh 30.21 in1023.0 mb 0.00 in0.0 mm 0.00 in0.0 mm 0.00 in0.0 mm
03:25 AM 28.4°F-2.0°C 18.9°F-7.3°C 67% 6.0 mph S9.7 kmh S 11.0 mph17.7 kmh 30.21 in1023.0 mb 0.00 in0.0 mm 0.00 in0.0 mm 0.00 in0.0 mm
03:20 AM 28.3°F-2.1°C 18.8°F-7.3°C 67% 5.0 mph SSW8.0 kmh SSW 9.0 mph14.5 kmh 30.22 in1023.4 mb 0.00 in0.0 mm 0.00 in0.0 mm 0.00 in0.0 mm
03:15 AM 28.3°F-2.1°C 19.1°F-7.2°C 68% 5.0 mph S8.0 kmh S 11.0 mph17.7 kmh 30.21 in1023.0 mb 0.00 in0.0 mm 0.00 in0.0 mm 0.00 in0.0 mm
03:10 AM 28.3°F-2.1°C 19.1°F-7.2°C 68% 3.0 mph SW4.8 kmh SW 7.0 mph11.3 kmh 30.23 in1023.7 mb 0.00 in0.0 mm 0.00 in0.0 mm 0.00 in0.0 mm
03:05 AM 28.3°F-2.1°C 19.1°F-7.2°C 68% 4.0 mph SSW6.4 kmh SSW 15.0 mph24.1 kmh 30.22 in1023.4 mb 0.00 in0.0 mm 0.00 in0.0 mm 0.00 in0.0 mm
03:00 AM 28.3°F-2.1°C 19.1°F-7.2°C 68% 5.0 mph S8.0 kmh S 11.0 mph17.7 kmh 30.23 in1023.7 mb 0.00 in0.0 mm 0.00 in0.0 mm 0.00 in0.0 mm
02:55 AM 28.3°F-2.1°C 19.1°F-7.2°C 68% 4.0 mph S6.4 kmh S 8.0 mph12.9 kmh 30.23 in1023.7 mb 0.00 in0.0 mm 0.00 in0.0 mm 0.00 in0.0 mm
02:50 AM 28.4°F-2.0°C 19.2°F-7.1°C 68% 4.0 mph SSE6.4 kmh SSE 8.0 mph12.9 kmh 30.22 in1023.4 mb 0.00 in0.0 mm 0.00 in0.0 mm 0.00 in0.0 mm
02:45 AM 28.6°F-1.9°C 19.4°F-7.0°C 68% 4.0 mph SE6.4 kmh SE 8.0 mph12.9 kmh 30.22 in1023.4 mb 0.00 in0.0 mm 0.00 in0.0 mm 0.00 in0.0 mm
02:40 AM 28.7°F-1.8°C 19.5°F-6.9°C 68% 6.0 mph SSE9.7 kmh SSE 14.0 mph22.5 kmh 30.23 in1023.7 mb 0.00 in0.0 mm 0.00 in0.0 mm 0.00 in0.0 mm
02:35 AM 28.7°F-1.8°C 19.5°F-6.9°C 68% 6.0 mph SSW9.7 kmh SSW 12.0 mph19.3 kmh 30.23 in1023.7 mb 0.00 in0.0 mm 0.00 in0.0 mm 0.00 in0.0 mm
02:30 AM 28.8°F-1.8°C 19.2°F-7.1°C 67% 4.0 mph SE6.4 kmh SE 7.0 mph11.3 kmh 30.24 in1024.0 mb 0.00 in0.0 mm 0.00 in0.0 mm 0.00 in0.0 mm
02:25 AM 29.1°F-1.6°C 19.5°F-6.9°C 67% 4.0 mph SSE6.4 kmh SSE 7.0 mph11.3 kmh 30.24 in1024.0 mb 0.00 in0.0 mm 0.00 in0.0 mm 0.00 in0.0 mm
02:20 AM 29.2°F-1.6°C 19.3°F-7.1°C 66% 5.0 mph S8.0 kmh S 10.0 mph16.1 kmh 30.24 in1024.0 mb 0.00 in0.0 mm 0.00 in0.0 mm 0.00 in0.0 mm
02:15 AM 29.2°F-1.6°C 19.3°F-7.1°C 66% 4.0 mph SSW6.4 kmh SSW 10.0 mph16.1 kmh 30.24 in1024.0 mb 0.00 in0.0 mm 0.00 in0.0 mm 0.00 in0.0 mm
02:10 AM 29.3°F-1.5°C 19.4°F-7.0°C 66% 3.0 mph SW4.8 kmh SW 6.0 mph9.7 kmh 30.25 in1024.4 mb 0.00 in0.0 mm 0.00 in0.0 mm 0.00 in0.0 mm
02:05 AM 29.3°F-1.5°C 19.4°F-7.0°C 66% 7.0 mph SW11.3 kmh SW 14.0 mph22.5 kmh 30.23 in1023.7 mb 0.00 in0.0 mm 0.00 in0.0 mm 0.00 in0.0 mm
02:00 AM 29.5°F-1.4°C 19.6°F-6.9°C 66% 3.0 mph SSW4.8 kmh SSW 8.0 mph12.9 kmh 30.25 in1024.4 mb 0.00 in0.0 mm 0.00 in0.0 mm 0.00 in0.0 mm
01:55 AM 29.8°F-1.2°C 19.5°F-6.9°C 65% 5.0 mph SSW8.0 kmh SSW 11.0 mph17.7 kmh 30.24 in1024.0 mb 0.00 in0.0 mm 0.00 in0.0 mm 0.00 in0.0 mm
01:50 AM 30.2°F-1.0°C 19.5°F-6.9°C 64% 3.0 mph WSW4.8 kmh WSW 6.0 mph9.7 kmh 30.25 in1024.4 mb 0.00 in0.0 mm 0.00 in0.0 mm 0.00 in0.0 mm
01:45 AM 30.6°F-0.8°C 19.5°F-6.9°C 63% 4.0 mph SE6.4 kmh SE 11.0 mph17.7 kmh 30.25 in1024.4 mb 0.00 in0.0 mm 0.00 in0.0 mm 0.00 in0.0 mm
01:40 AM 31.2°F-0.4°C 19.7°F-6.8°C 62% 5.0 mph SE8.0 kmh SE 12.0 mph19.3 kmh 30.24 in1024.0 mb 0.00 in0.0 mm 0.00 in0.0 mm 0.00 in0.0 mm
01:35 AM 31.5°F-0.3°C 19.6°F-6.9°C 61% 2.0 mph ESE3.2 kmh ESE 6.0 mph9.7 kmh 30.25 in1024.4 mb 0.00 in0.0 mm 0.00 in0.0 mm 0.00 in0.0 mm
01:30 AM 31.7°F-0.2°C 19.4°F-7.0°C 60% 3.0 mph SSW4.8 kmh SSW 8.0 mph12.9 kmh 30.25 in1024.4 mb 0.00 in0.0 mm 0.00 in0.0 mm 0.00 in0.0 mm
01:25 AM 31.7°F-0.2°C 19.4°F-7.0°C 60% 8.0 mph SE12.9 kmh SE 17.0 mph27.4 kmh 30.27 in1025.1 mb 0.00 in0.0 mm 0.00 in0.0 mm 0.00 in0.0 mm
01:20 AM 31.7°F-0.2°C 19.4°F-7.0°C 60% 4.0 mph SSE6.4 kmh SSE 9.0 mph14.5 kmh 30.27 in1025.1 mb 0.00 in0.0 mm 0.00 in0.0 mm 0.00 in0.0 mm
01:15 AM 31.9°F-0.1°C 19.6°F-6.9°C 60% 3.0 mph SW4.8 kmh SW 6.0 mph9.7 kmh 30.28 in1025.4 mb 0.00 in0.0 mm 0.00 in0.0 mm 0.00 in0.0 mm
01:10 AM 31.9°F-0.1°C 19.6°F-6.9°C 60% 3.0 mph SSW4.8 kmh SSW 9.0 mph14.5 kmh 30.29 in1025.7 mb 0.00 in0.0 mm 0.00 in0.0 mm 0.00 in0.0 mm
01:05 AM 31.9°F-0.1°C 19.6°F-6.9°C 60% 5.0 mph ESE8.0 kmh ESE 13.0 mph20.9 kmh 30.29 in1025.7 mb 0.00 in0.0 mm 0.00 in0.0 mm 0.00 in0.0 mm
01:00 AM 31.7°F-0.2°C 19.8°F-6.8°C 61% 4.0 mph SW6.4 kmh SW 12.0 mph19.3 kmh 30.29 in1025.7 mb 0.00 in0.0 mm 0.00 in0.0 mm 0.00 in0.0 mm
12:55 AM 31.4°F-0.3°C 19.5°F-6.9°C 61% 4.0 mph S6.4 kmh S 8.0 mph12.9 kmh 30.29 in1025.7 mb 0.00 in0.0 mm 0.00 in0.0 mm 0.00 in0.0 mm
12:50 AM 31.6°F-0.2°C 19.7°F-6.8°C 61% 3.0 mph SW4.8 kmh SW 8.0 mph12.9 kmh 30.29 in1025.7 mb 0.00 in0.0 mm 0.00 in0.0 mm 0.00 in0.0 mm
12:45 AM 31.5°F-0.3°C 19.6°F-6.9°C 61% 4.0 mph WNW6.4 kmh WNW 10.0 mph16.1 kmh 30.29 in1025.7 mb 0.00 in0.0 mm 0.00 in0.0 mm 0.00 in0.0 mm
12:40 AM 31.4°F-0.3°C 19.5°F-6.9°C 61% 4.0 mph WSW6.4 kmh WSW 9.0 mph14.5 kmh 30.30 in1026.1 mb 0.00 in0.0 mm 0.00 in0.0 mm 0.00 in0.0 mm
12:35 AM 31.4°F-0.3°C 19.5°F-6.9°C 61% 5.0 mph W8.0 kmh W 8.0 mph12.9 kmh 30.30 in1026.1 mb 0.00 in0.0 mm 0.00 in0.0 mm 0.00 in0.0 mm
12:30 AM 31.2°F-0.4°C 19.3°F-7.1°C 61% 2.0 mph WSW3.2 kmh WSW 22.0 mph35.4 kmh 30.31 in1026.4 mb 0.00 in0.0 mm 0.00 in0.0 mm 0.00 in0.0 mm
12:25 AM 31.0°F-0.6°C 19.5°F-6.9°C 62% 7.0 mph SW11.3 kmh SW 21.0 mph33.8 kmh 30.30 in1026.1 mb 0.00 in0.0 mm 0.00 in0.0 mm 0.00 in0.0 mm
12:20 AM 31.1°F-0.5°C 19.2°F-7.1°C 61% 2.0 mph 3.2 kmh 10.0 mph16.1 kmh 30.32 in1026.8 mb 0.00 in0.0 mm 0.00 in0.0 mm 0.00 in0.0 mm
12:15 AM 31.2°F-0.4°C 19.3°F-7.1°C 61% 2.0 mph NE3.2 kmh NE 7.0 mph11.3 kmh 30.31 in1026.4 mb 0.00 in0.0 mm 0.00 in0.0 mm 0.00 in0.0 mm
12:10 AM 30.8°F-0.7°C 19.3°F-7.1°C 62% 7.0 mph NE11.3 kmh NE 15.0 mph24.1 kmh 30.32 in1026.8 mb 0.00 in0.0 mm 0.00 in0.0 mm 0.00 in0.0 mm
12:05 AM 30.7°F-0.7°C 18.9°F-7.3°C 61% 5.0 mph NE8.0 kmh NE 12.0 mph19.3 kmh 30.32 in1026.8 mb 0.00 in0.0 mm 0.00 in0.0 mm 0.00 in0.0 mm
12:00 AM 31.1°F-0.5°C 18.9°F-7.3°C 60% 4.0 mph 6.4 kmh 11.0 mph17.7 kmh 30.31 in1026.4 mb 0.00 in0.0 mm 0.00 in0.0 mm 0.01 in0.3 mm